sensor_id;sensor_type;location;lat;lon;timestamp;P1;durP1;ratioP1;P2;durP2;ratioP2
6598;SDS011;3335;43.198;27.918;2022-12-29T00:00:19;34.20;;;18.33;;
6598;SDS011;3335;43.198;27.918;2022-12-29T00:02:46;36.00;;;18.23;;
6598;SDS011;3335;43.198;27.918;2022-12-29T00:05:13;37.73;;;19.70;;
6598;SDS011;3335;43.198;27.918;2022-12-29T00:07:40;42.80;;;19.70;;
6598;SDS011;3335;43.198;27.918;2022-12-29T00:10:07;40.27;;;20.13;;
6598;SDS011;3335;43.198;27.918;2022-12-29T00:12:34;39.60;;;20.63;;
6598;SDS011;3335;43.198;27.918;2022-12-29T00:15:20;44.90;;;18.77;;
6598;SDS011;3335;43.198;27.918;2022-12-29T00:18:05;44.30;;;20.90;;
6598;SDS011;3335;43.198;27.918;2022-12-29T00:20:33;39.10;;;19.57;;
6598;SDS011;3335;43.198;27.918;2022-12-29T00:23:17;40.27;;;18.73;;
6598;SDS011;3335;43.198;27.918;2022-12-29T00:26:02;40.27;;;19.83;;
6598;SDS011;3335;43.198;27.918;2022-12-29T00:28:47;45.23;;;21.40;;
6598;SDS011;3335;43.198;27.918;2022-12-29T00:31:35;41.60;;;20.43;;
6598;SDS011;3335;43.198;27.918;2022-12-29T00:34:19;45.27;;;20.00;;
6598;SDS011;3335;43.198;27.918;2022-12-29T00:37:04;40.17;;;19.60;;
6598;SDS011;3335;43.198;27.918;2022-12-29T00:39:31;38.40;;;19.27;;
6598;SDS011;3335;43.198;27.918;2022-12-29T00:42:21;43.57;;;19.43;;
6598;SDS011;3335;43.198;27.918;2022-12-29T00:45:05;47.00;;;21.73;;
6598;SDS011;3335;43.198;27.918;2022-12-29T00:47:34;47.47;;;23.10;;
6598;SDS011;3335;43.198;27.918;2022-12-29T00:50:01;50.97;;;26.30;;
6598;SDS011;3335;43.198;27.918;2022-12-29T00:52:27;51.07;;;24.77;;
6598;SDS011;3335;43.198;27.918;2022-12-29T00:54:54;49.13;;;23.50;;
6598;SDS011;3335;43.198;27.918;2022-12-29T00:57:21;37.27;;;21.40;;
6598;SDS011;3335;43.198;27.918;2022-12-29T00:59:48;39.47;;;19.03;;
6598;SDS011;3335;43.198;27.918;2022-12-29T01:02:15;34.50;;;17.47;;
6598;SDS011;3335;43.198;27.918;2022-12-29T01:04:43;33.43;;;17.73;;
6598;SDS011;3335;43.198;27.918;2022-12-29T01:07:10;36.40;;;17.23;;
6598;SDS011;3335;43.198;27.918;2022-12-29T01:09:37;32.03;;;17.03;;
6598;SDS011;3335;43.198;27.918;2022-12-29T01:12:21;31.73;;;16.50;;
6598;SDS011;3335;43.198;27.918;2022-12-29T01:15:01;31.50;;;15.07;;
6598;SDS011;3335;43.198;27.918;2022-12-29T01:17:29;32.23;;;15.27;;
6598;SDS011;3335;43.198;27.918;2022-12-29T01:19:57;28.37;;;14.57;;
6598;SDS011;3335;43.198;27.918;2022-12-29T01:22:24;25.60;;;14.97;;
6598;SDS011;3335;43.198;27.918;2022-12-29T01:24:51;27.63;;;15.37;;
6598;SDS011;3335;43.198;27.918;2022-12-29T01:27:17;25.00;;;14.47;;
6598;SDS011;3335;43.198;27.918;2022-12-29T01:29:44;31.67;;;15.40;;
6598;SDS011;3335;43.198;27.918;2022-12-29T01:32:11;27.70;;;15.43;;
6598;SDS011;3335;43.198;27.918;2022-12-29T01:34:38;25.70;;;15.77;;
6598;SDS011;3335;43.198;27.918;2022-12-29T01:37:06;30.10;;;16.37;;
6598;SDS011;3335;43.198;27.918;2022-12-29T01:39:33;34.87;;;16.83;;
6598;SDS011;3335;43.198;27.918;2022-12-29T01:42:00;31.00;;;16.73;;
6598;SDS011;3335;43.198;27.918;2022-12-29T01:47:25;32.17;;;15.97;;
6598;SDS011;3335;43.198;27.918;2022-12-29T01:49:57;28.50;;;15.67;;
6598;SDS011;3335;43.198;27.918;2022-12-29T01:52:30;31.83;;;15.23;;
6598;SDS011;3335;43.198;27.918;2022-12-29T01:55:00;27.27;;;15.13;;
6598;SDS011;3335;43.198;27.918;2022-12-29T01:57:31;39.40;;;15.83;;
6598;SDS011;3335;43.198;27.918;2022-12-29T02:00:01;29.00;;;15.60;;
6598;SDS011;3335;43.198;27.918;2022-12-29T02:02:30;28.63;;;14.67;;
6598;SDS011;3335;43.198;27.918;2022-12-29T02:04:58;29.10;;;14.40;;
6598;SDS011;3335;43.198;27.918;2022-12-29T02:07:28;36.43;;;16.60;;
6598;SDS011;3335;43.198;27.918;2022-12-29T02:09:57;29.00;;;14.90;;
6598;SDS011;3335;43.198;27.918;2022-12-29T02:12:26;24.07;;;14.67;;
6598;SDS011;3335;43.198;27.918;2022-12-29T02:14:54;31.27;;;15.70;;
6598;SDS011;3335;43.198;27.918;2022-12-29T02:17:31;32.07;;;15.97;;
6598;SDS011;3335;43.198;27.918;2022-12-29T02:23:39;28.20;;;15.10;;
6598;SDS011;3335;43.198;27.918;2022-12-29T02:26:40;30.43;;;15.27;;
6598;SDS011;3335;43.198;27.918;2022-12-29T02:32:28;27.57;;;13.50;;
6598;SDS011;3335;43.198;27.918;2022-12-29T02:35:05;23.40;;;13.67;;
6598;SDS011;3335;43.198;27.918;2022-12-29T02:37:43;23.23;;;14.17;;
6598;SDS011;3335;43.198;27.918;2022-12-29T02:40:22;35.33;;;15.20;;
6598;SDS011;3335;43.198;27.918;2022-12-29T02:42:55;56.27;;;29.03;;
6598;SDS011;3335;43.198;27.918;2022-12-29T02:45:29;88.93;;;46.83;;
6598;SDS011;3335;43.198;27.918;2022-12-29T02:48:05;124.43;;;57.33;;
6598;SDS011;3335;43.198;27.918;2022-12-29T02:50:37;117.83;;;58.20;;
6598;SDS011;3335;43.198;27.918;2022-12-29T02:53:07;130.27;;;62.23;;
6598;SDS011;3335;43.198;27.918;2022-12-29T02:55:38;121.33;;;61.33;;
6598;SDS011;3335;43.198;27.918;2022-12-29T02:58:15;111.37;;;54.23;;
6598;SDS011;3335;43.198;27.918;2022-12-29T03:00:48;100.20;;;47.43;;
6598;SDS011;3335;43.198;27.918;2022-12-29T03:03:35;74.23;;;39.07;;
6598;SDS011;3335;43.198;27.918;2022-12-29T03:06:17;79.03;;;41.27;;
6598;SDS011;3335;43.198;27.918;2022-12-29T03:08:59;77.47;;;38.17;;
6598;SDS011;3335;43.198;27.918;2022-12-29T03:11:33;75.83;;;35.60;;
6598;SDS011;3335;43.198;27.918;2022-12-29T03:14:26;70.77;;;35.60;;
6598;SDS011;3335;43.198;27.918;2022-12-29T03:17:15;55.33;;;28.97;;
6598;SDS011;3335;43.198;27.918;2022-12-29T03:19:52;43.47;;;24.17;;
6598;SDS011;3335;43.198;27.918;2022-12-29T03:22:26;39.73;;;21.47;;
6598;SDS011;3335;43.198;27.918;2022-12-29T03:24:58;31.03;;;17.93;;
6598;SDS011;3335;43.198;27.918;2022-12-29T03:27:30;37.37;;;18.00;;
6598;SDS011;3335;43.198;27.918;2022-12-29T03:30:01;33.50;;;17.80;;
6598;SDS011;3335;43.198;27.918;2022-12-29T03:32:31;38.07;;;18.53;;
6598;SDS011;3335;43.198;27.918;2022-12-29T03:35:04;36.87;;;17.07;;
6598;SDS011;3335;43.198;27.918;2022-12-29T03:37:35;31.37;;;16.17;;
6598;SDS011;3335;43.198;27.918;2022-12-29T03:40:04;31.70;;;15.10;;
6598;SDS011;3335;43.198;27.918;2022-12-29T03:42:32;30.87;;;15.40;;
6598;SDS011;3335;43.198;27.918;2022-12-29T03:45:03;27.97;;;14.57;;
6598;SDS011;3335;43.198;27.918;2022-12-29T03:47:32;24.07;;;13.57;;
6598;SDS011;3335;43.198;27.918;2022-12-29T03:49:59;33.90;;;14.17;;
6598;SDS011;3335;43.198;27.918;2022-12-29T03:52:28;32.33;;;14.53;;
6598;SDS011;3335;43.198;27.918;2022-12-29T03:54:55;26.90;;;12.90;;
6598;SDS011;3335;43.198;27.918;2022-12-29T03:57:21;26.27;;;12.77;;
6598;SDS011;3335;43.198;27.918;2022-12-29T03:59:48;28.00;;;11.73;;
6598;SDS011;3335;43.198;27.918;2022-12-29T04:02:15;26.67;;;12.50;;
6598;SDS011;3335;43.198;27.918;2022-12-29T04:04:42;21.60;;;11.63;;
6598;SDS011;3335;43.198;27.918;2022-12-29T04:07:09;27.23;;;12.67;;
6598;SDS011;3335;43.198;27.918;2022-12-29T04:09:37;20.63;;;10.73;;
6598;SDS011;3335;43.198;27.918;2022-12-29T04:12:04;22.07;;;11.27;;
6598;SDS011;3335;43.198;27.918;2022-12-29T04:14:31;25.53;;;12.73;;
6598;SDS011;3335;43.198;27.918;2022-12-29T04:16:58;23.90;;;11.40;;
6598;SDS011;3335;43.198;27.918;2022-12-29T04:19:25;22.50;;;11.60;;
6598;SDS011;3335;43.198;27.918;2022-12-29T04:21:52;20.50;;;11.63;;
6598;SDS011;3335;43.198;27.918;2022-12-29T04:24:19;22.97;;;11.63;;
6598;SDS011;3335;43.198;27.918;2022-12-29T04:26:47;22.37;;;11.47;;
6598;SDS011;3335;43.198;27.918;2022-12-29T04:29:14;22.77;;;12.10;;
6598;SDS011;3335;43.198;27.918;2022-12-29T04:31:41;20.90;;;12.20;;
6598;SDS011;3335;43.198;27.918;2022-12-29T04:34:08;28.33;;;12.97;;
6598;SDS011;3335;43.198;27.918;2022-12-29T04:36:35;21.43;;;12.93;;
6598;SDS011;3335;43.198;27.918;2022-12-29T04:39:02;31.97;;;14.20;;
6598;SDS011;3335;43.198;27.918;2022-12-29T04:41:30;21.00;;;13.67;;
6598;SDS011;3335;43.198;27.918;2022-12-29T04:43:58;25.87;;;13.10;;
6598;SDS011;3335;43.198;27.918;2022-12-29T04:46:25;24.73;;;12.30;;
6598;SDS011;3335;43.198;27.918;2022-12-29T04:48:52;23.97;;;13.20;;
6598;SDS011;3335;43.198;27.918;2022-12-29T04:51:19;29.53;;;13.47;;
6598;SDS011;3335;43.198;27.918;2022-12-29T04:53:46;25.07;;;12.63;;
6598;SDS011;3335;43.198;27.918;2022-12-29T04:56:13;27.47;;;13.57;;
6598;SDS011;3335;43.198;27.918;2022-12-29T04:58:39;20.57;;;12.13;;
6598;SDS011;3335;43.198;27.918;2022-12-29T05:01:08;30.80;;;12.87;;
6598;SDS011;3335;43.198;27.918;2022-12-29T05:03:35;22.63;;;11.83;;
6598;SDS011;3335;43.198;27.918;2022-12-29T05:06:01;21.83;;;12.80;;
6598;SDS011;3335;43.198;27.918;2022-12-29T05:08:29;21.50;;;12.40;;
6598;SDS011;3335;43.198;27.918;2022-12-29T05:10:56;27.23;;;12.77;;
6598;SDS011;3335;43.198;27.918;2022-12-29T05:13:22;28.70;;;14.00;;
6598;SDS011;3335;43.198;27.918;2022-12-29T05:15:49;23.07;;;14.23;;
6598;SDS011;3335;43.198;27.918;2022-12-29T05:18:19;27.50;;;14.53;;
6598;SDS011;3335;43.198;27.918;2022-12-29T05:20:46;26.50;;;14.87;;
6598;SDS011;3335;43.198;27.918;2022-12-29T05:23:13;28.40;;;15.27;;
6598;SDS011;3335;43.198;27.918;2022-12-29T05:25:40;26.20;;;14.47;;
6598;SDS011;3335;43.198;27.918;2022-12-29T05:28:07;31.30;;;15.40;;
6598;SDS011;3335;43.198;27.918;2022-12-29T05:30:34;30.10;;;14.70;;
6598;SDS011;3335;43.198;27.918;2022-12-29T05:33:01;28.53;;;15.27;;
6598;SDS011;3335;43.198;27.918;2022-12-29T05:35:29;27.37;;;15.40;;
6598;SDS011;3335;43.198;27.918;2022-12-29T05:37:56;29.23;;;15.67;;
6598;SDS011;3335;43.198;27.918;2022-12-29T05:40:23;37.97;;;17.17;;
6598;SDS011;3335;43.198;27.918;2022-12-29T05:42:50;34.60;;;16.13;;
6598;SDS011;3335;43.198;27.918;2022-12-29T05:45:17;31.30;;;16.93;;
6598;SDS011;3335;43.198;27.918;2022-12-29T05:47:44;35.20;;;16.57;;
6598;SDS011;3335;43.198;27.918;2022-12-29T05:50:11;31.47;;;17.73;;
6598;SDS011;3335;43.198;27.918;2022-12-29T05:52:39;30.23;;;17.80;;
6598;SDS011;3335;43.198;27.918;2022-12-29T05:55:06;30.40;;;17.57;;
6598;SDS011;3335;43.198;27.918;2022-12-29T05:57:33;30.40;;;16.47;;
6598;SDS011;3335;43.198;27.918;2022-12-29T06:00:00;33.47;;;16.43;;
6598;SDS011;3335;43.198;27.918;2022-12-29T06:02:28;36.67;;;16.97;;
6598;SDS011;3335;43.198;27.918;2022-12-29T06:04:55;32.80;;;16.03;;
6598;SDS011;3335;43.198;27.918;2022-12-29T06:07:22;27.10;;;16.10;;
6598;SDS011;3335;43.198;27.918;2022-12-29T06:09:50;35.10;;;16.47;;
6598;SDS011;3335;43.198;27.918;2022-12-29T06:12:17;34.27;;;17.30;;
6598;SDS011;3335;43.198;27.918;2022-12-29T06:14:44;34.50;;;16.37;;
6598;SDS011;3335;43.198;27.918;2022-12-29T06:17:11;40.77;;;18.03;;
6598;SDS011;3335;43.198;27.918;2022-12-29T06:19:38;33.50;;;19.80;;
6598;SDS011;3335;43.198;27.918;2022-12-29T06:22:05;35.00;;;18.60;;
6598;SDS011;3335;43.198;27.918;2022-12-29T06:24:32;42.07;;;19.20;;
6598;SDS011;3335;43.198;27.918;2022-12-29T06:27:00;39.67;;;20.10;;
6598;SDS011;3335;43.198;27.918;2022-12-29T06:29:27;34.20;;;19.10;;
6598;SDS011;3335;43.198;27.918;2022-12-29T06:31:54;36.83;;;18.27;;
6598;SDS011;3335;43.198;27.918;2022-12-29T06:34:23;46.67;;;20.80;;
6598;SDS011;3335;43.198;27.918;2022-12-29T06:36:50;43.07;;;18.60;;
6598;SDS011;3335;43.198;27.918;2022-12-29T06:39:17;43.77;;;19.63;;
6598;SDS011;3335;43.198;27.918;2022-12-29T06:41:44;42.97;;;18.83;;
6598;SDS011;3335;43.198;27.918;2022-12-29T06:44:12;43.27;;;19.37;;
6598;SDS011;3335;43.198;27.918;2022-12-29T06:46:39;48.50;;;20.37;;
6598;SDS011;3335;43.198;27.918;2022-12-29T06:49:06;41.73;;;20.20;;
6598;SDS011;3335;43.198;27.918;2022-12-29T06:51:33;45.93;;;19.70;;
6598;SDS011;3335;43.198;27.918;2022-12-29T06:54:00;45.73;;;20.97;;
6598;SDS011;3335;43.198;27.918;2022-12-29T06:56:26;50.03;;;20.93;;
6598;SDS011;3335;43.198;27.918;2022-12-29T06:58:53;49.43;;;22.30;;
6598;SDS011;3335;43.198;27.918;2022-12-29T07:01:22;39.53;;;20.77;;
6598;SDS011;3335;43.198;27.918;2022-12-29T07:03:49;41.90;;;22.03;;
6598;SDS011;3335;43.198;27.918;2022-12-29T07:06:16;48.27;;;23.50;;
6598;SDS011;3335;43.198;27.918;2022-12-29T07:08:43;41.17;;;24.57;;
6598;SDS011;3335;43.198;27.918;2022-12-29T07:11:09;55.40;;;24.70;;
6598;SDS011;3335;43.198;27.918;2022-12-29T07:13:37;48.13;;;24.47;;
6598;SDS011;3335;43.198;27.918;2022-12-29T07:16:07;51.07;;;24.27;;
6598;SDS011;3335;43.198;27.918;2022-12-29T07:18:36;43.80;;;22.17;;
6598;SDS011;3335;43.198;27.918;2022-12-29T07:21:03;48.50;;;23.53;;
6598;SDS011;3335;43.198;27.918;2022-12-29T07:23:31;53.03;;;24.03;;
6598;SDS011;3335;43.198;27.918;2022-12-29T07:25:58;47.03;;;22.87;;
6598;SDS011;3335;43.198;27.918;2022-12-29T07:28:27;45.97;;;23.73;;
6598;SDS011;3335;43.198;27.918;2022-12-29T07:30:54;53.77;;;21.17;;
6598;SDS011;3335;43.198;27.918;2022-12-29T07:33:21;49.43;;;21.97;;
6598;SDS011;3335;43.198;27.918;2022-12-29T07:35:49;43.77;;;22.50;;
6598;SDS011;3335;43.198;27.918;2022-12-29T07:38:16;47.23;;;22.63;;
6598;SDS011;3335;43.198;27.918;2022-12-29T07:40:43;51.83;;;20.90;;
6598;SDS011;3335;43.198;27.918;2022-12-29T07:43:10;39.70;;;19.17;;
6598;SDS011;3335;43.198;27.918;2022-12-29T07:45:37;40.37;;;19.80;;
6598;SDS011;3335;43.198;27.918;2022-12-29T07:48:04;42.67;;;19.40;;
6598;SDS011;3335;43.198;27.918;2022-12-29T07:50:32;39.70;;;19.50;;
6598;SDS011;3335;43.198;27.918;2022-12-29T07:53:01;42.83;;;19.40;;
6598;SDS011;3335;43.198;27.918;2022-12-29T07:55:28;41.30;;;19.47;;
6598;SDS011;3335;43.198;27.918;2022-12-29T07:57:55;59.00;;;21.23;;
6598;SDS011;3335;43.198;27.918;2022-12-29T08:00:23;45.00;;;22.20;;
6598;SDS011;3335;43.198;27.918;2022-12-29T08:02:50;53.40;;;23.40;;
6598;SDS011;3335;43.198;27.918;2022-12-29T08:05:17;47.13;;;24.03;;
6598;SDS011;3335;43.198;27.918;2022-12-29T08:07:44;48.03;;;21.80;;
6598;SDS011;3335;43.198;27.918;2022-12-29T08:10:13;47.10;;;21.27;;
6598;SDS011;3335;43.198;27.918;2022-12-29T08:12:41;42.13;;;21.50;;
6598;SDS011;3335;43.198;27.918;2022-12-29T08:15:09;50.27;;;20.43;;
6598;SDS011;3335;43.198;27.918;2022-12-29T08:17:37;38.20;;;18.83;;
6598;SDS011;3335;43.198;27.918;2022-12-29T08:20:04;49.23;;;20.47;;
6598;SDS011;3335;43.198;27.918;2022-12-29T08:22:32;39.67;;;19.37;;
6598;SDS011;3335;43.198;27.918;2022-12-29T08:24:59;38.73;;;19.00;;
6598;SDS011;3335;43.198;27.918;2022-12-29T08:27:28;42.40;;;19.70;;
6598;SDS011;3335;43.198;27.918;2022-12-29T08:29:54;48.57;;;18.43;;
6598;SDS011;3335;43.198;27.918;2022-12-29T08:32:22;41.27;;;18.60;;
6598;SDS011;3335;43.198;27.918;2022-12-29T08:34:49;38.73;;;17.83;;
6598;SDS011;3335;43.198;27.918;2022-12-29T08:37:16;34.23;;;17.50;;
6598;SDS011;3335;43.198;27.918;2022-12-29T08:39:43;38.07;;;15.40;;
6598;SDS011;3335;43.198;27.918;2022-12-29T08:42:09;27.20;;;13.93;;
6598;SDS011;3335;43.198;27.918;2022-12-29T08:44:38;31.43;;;14.27;;
6598;SDS011;3335;43.198;27.918;2022-12-29T08:47:05;41.53;;;18.50;;
6598;SDS011;3335;43.198;27.918;2022-12-29T08:49:33;38.10;;;16.47;;
6598;SDS011;3335;43.198;27.918;2022-12-29T08:52:00;37.63;;;15.73;;
6598;SDS011;3335;43.198;27.918;2022-12-29T08:54:27;28.40;;;13.57;;
6598;SDS011;3335;43.198;27.918;2022-12-29T08:56:54;25.83;;;13.70;;
6598;SDS011;3335;43.198;27.918;2022-12-29T08:59:22;34.97;;;13.50;;
6598;SDS011;3335;43.198;27.918;2022-12-29T09:01:50;26.13;;;12.50;;
6598;SDS011;3335;43.198;27.918;2022-12-29T09:04:17;31.93;;;13.17;;
6598;SDS011;3335;43.198;27.918;2022-12-29T09:06:44;37.83;;;14.90;;
6598;SDS011;3335;43.198;27.918;2022-12-29T09:09:11;30.47;;;15.40;;
6598;SDS011;3335;43.198;27.918;2022-12-29T09:11:38;26.60;;;14.17;;
6598;SDS011;3335;43.198;27.918;2022-12-29T09:14:05;36.83;;;16.17;;
6598;SDS011;3335;43.198;27.918;2022-12-29T09:16:32;70.20;;;17.90;;
6598;SDS011;3335;43.198;27.918;2022-12-29T09:19:01;85.70;;;19.53;;
6598;SDS011;3335;43.198;27.918;2022-12-29T09:21:29;71.17;;;17.50;;
6598;SDS011;3335;43.198;27.918;2022-12-29T09:23:56;36.47;;;14.63;;
6598;SDS011;3335;43.198;27.918;2022-12-29T09:26:23;27.60;;;13.57;;
6598;SDS011;3335;43.198;27.918;2022-12-29T09:28:49;23.23;;;11.33;;
6598;SDS011;3335;43.198;27.918;2022-12-29T09:31:16;29.13;;;12.47;;
6598;SDS011;3335;43.198;27.918;2022-12-29T09:33:43;25.37;;;11.80;;
6598;SDS011;3335;43.198;27.918;2022-12-29T09:36:12;44.10;;;17.13;;
6598;SDS011;3335;43.198;27.918;2022-12-29T09:38:39;58.10;;;16.83;;
6598;SDS011;3335;43.198;27.918;2022-12-29T09:41:06;34.53;;;13.80;;
6598;SDS011;3335;43.198;27.918;2022-12-29T09:43:50;40.37;;;15.13;;
6598;SDS011;3335;43.198;27.918;2022-12-29T09:46:26;39.23;;;13.33;;
6598;SDS011;3335;43.198;27.918;2022-12-29T09:48:57;26.63;;;12.13;;
6598;SDS011;3335;43.198;27.918;2022-12-29T09:51:34;27.93;;;12.03;;
6598;SDS011;3335;43.198;27.918;2022-12-29T09:54:10;29.83;;;12.20;;
6598;SDS011;3335;43.198;27.918;2022-12-29T09:56:49;35.40;;;13.00;;
6598;SDS011;3335;43.198;27.918;2022-12-29T09:59:19;33.03;;;16.10;;
6598;SDS011;3335;43.198;27.918;2022-12-29T10:01:51;33.47;;;12.60;;
6598;SDS011;3335;43.198;27.918;2022-12-29T10:04:25;18.37;;;9.97;;
6598;SDS011;3335;43.198;27.918;2022-12-29T10:06:56;32.47;;;12.77;;
6598;SDS011;3335;43.198;27.918;2022-12-29T10:09:30;35.00;;;15.47;;
6598;SDS011;3335;43.198;27.918;2022-12-29T10:12:08;41.70;;;15.93;;
6598;SDS011;3335;43.198;27.918;2022-12-29T10:14:47;38.73;;;12.83;;
6598;SDS011;3335;43.198;27.918;2022-12-29T10:17:25;27.17;;;11.80;;
6598;SDS011;3335;43.198;27.918;2022-12-29T10:20:03;29.67;;;11.70;;
6598;SDS011;3335;43.198;27.918;2022-12-29T10:22:48;24.23;;;11.37;;
6598;SDS011;3335;43.198;27.918;2022-12-29T10:25:28;15.17;;;9.93;;
6598;SDS011;3335;43.198;27.918;2022-12-29T10:27:59;17.10;;;9.97;;
6598;SDS011;3335;43.198;27.918;2022-12-29T10:30:31;20.47;;;9.40;;
6598;SDS011;3335;43.198;27.918;2022-12-29T10:33:00;18.77;;;8.63;;
6598;SDS011;3335;43.198;27.918;2022-12-29T10:35:31;15.33;;;8.57;;
6598;SDS011;3335;43.198;27.918;2022-12-29T10:38:10;22.07;;;9.87;;
6598;SDS011;3335;43.198;27.918;2022-12-29T10:40:42;22.03;;;9.33;;
6598;SDS011;3335;43.198;27.918;2022-12-29T10:43:16;18.83;;;8.60;;
6598;SDS011;3335;43.198;27.918;2022-12-29T10:45:51;14.97;;;8.60;;
6598;SDS011;3335;43.198;27.918;2022-12-29T10:48:19;15.10;;;7.97;;
6598;SDS011;3335;43.198;27.918;2022-12-29T10:50:48;16.03;;;7.27;;
6598;SDS011;3335;43.198;27.918;2022-12-29T10:53:22;17.10;;;8.43;;
6598;SDS011;3335;43.198;27.918;2022-12-29T10:55:52;15.73;;;8.53;;
6598;SDS011;3335;43.198;27.918;2022-12-29T10:58:21;14.57;;;7.50;;
6598;SDS011;3335;43.198;27.918;2022-12-29T11:00:49;13.00;;;7.87;;
6598;SDS011;3335;43.198;27.918;2022-12-29T11:03:33;14.53;;;7.00;;
6598;SDS011;3335;43.198;27.918;2022-12-29T11:06:13;14.50;;;7.27;;
6598;SDS011;3335;43.198;27.918;2022-12-29T11:08:46;13.57;;;6.80;;
6598;SDS011;3335;43.198;27.918;2022-12-29T11:11:21;13.37;;;6.97;;
6598;SDS011;3335;43.198;27.918;2022-12-29T11:13:55;14.90;;;7.63;;
6598;SDS011;3335;43.198;27.918;2022-12-29T11:16:30;11.97;;;6.60;;
6598;SDS011;3335;43.198;27.918;2022-12-29T11:18:59;8.97;;;6.57;;
6598;SDS011;3335;43.198;27.918;2022-12-29T11:21:27;11.33;;;7.13;;
6598;SDS011;3335;43.198;27.918;2022-12-29T11:24:00;11.43;;;6.00;;
6598;SDS011;3335;43.198;27.918;2022-12-29T11:26:29;9.87;;;5.77;;
6598;SDS011;3335;43.198;27.918;2022-12-29T11:29:14;9.80;;;5.67;;
6598;SDS011;3335;43.198;27.918;2022-12-29T11:31:47;13.57;;;6.43;;
6598;SDS011;3335;43.198;27.918;2022-12-29T11:34:19;12.03;;;6.83;;
6598;SDS011;3335;43.198;27.918;2022-12-29T11:36:49;9.27;;;6.30;;
6598;SDS011;3335;43.198;27.918;2022-12-29T11:39:26;13.83;;;6.53;;
6598;SDS011;3335;43.198;27.918;2022-12-29T11:41:56;12.07;;;7.13;;
6598;SDS011;3335;43.198;27.918;2022-12-29T11:44:24;14.10;;;7.23;;
6598;SDS011;3335;43.198;27.918;2022-12-29T11:46:53;12.67;;;7.33;;
6598;SDS011;3335;43.198;27.918;2022-12-29T11:49:22;16.27;;;5.77;;
6598;SDS011;3335;43.198;27.918;2022-12-29T11:51:51;9.03;;;5.50;;
6598;SDS011;3335;43.198;27.918;2022-12-29T11:54:22;13.30;;;6.53;;
6598;SDS011;3335;43.198;27.918;2022-12-29T11:56:53;8.90;;;5.93;;
6598;SDS011;3335;43.198;27.918;2022-12-29T11:59:24;22.27;;;6.83;;
6598;SDS011;3335;43.198;27.918;2022-12-29T12:05:17;17.27;;;7.67;;
6598;SDS011;3335;43.198;27.918;2022-12-29T12:07:52;12.63;;;6.90;;
6598;SDS011;3335;43.198;27.918;2022-12-29T12:10:26;12.93;;;6.30;;
6598;SDS011;3335;43.198;27.918;2022-12-29T12:12:58;18.77;;;6.77;;
6598;SDS011;3335;43.198;27.918;2022-12-29T12:15:31;21.40;;;6.93;;
6598;SDS011;3335;43.198;27.918;2022-12-29T12:18:05;23.70;;;8.67;;
6598;SDS011;3335;43.198;27.918;2022-12-29T12:20:40;27.23;;;7.33;;
6598;SDS011;3335;43.198;27.918;2022-12-29T12:23:16;14.80;;;7.00;;
6598;SDS011;3335;43.198;27.918;2022-12-29T12:25:57;20.00;;;7.23;;
6598;SDS011;3335;43.198;27.918;2022-12-29T12:28:33;15.17;;;6.57;;
6598;SDS011;3335;43.198;27.918;2022-12-29T12:31:05;44.30;;;7.87;;
6598;SDS011;3335;43.198;27.918;2022-12-29T12:33:41;29.53;;;7.50;;
6598;SDS011;3335;43.198;27.918;2022-12-29T12:36:18;20.57;;;7.00;;
6598;SDS011;3335;43.198;27.918;2022-12-29T12:38:55;12.17;;;5.93;;
6598;SDS011;3335;43.198;27.918;2022-12-29T12:41:32;19.00;;;7.10;;
6598;SDS011;3335;43.198;27.918;2022-12-29T12:44:10;34.23;;;7.80;;
6598;SDS011;3335;43.198;27.918;2022-12-29T12:49:49;20.80;;;6.70;;
6598;SDS011;3335;43.198;27.918;2022-12-29T12:52:58;20.40;;;6.33;;
6598;SDS011;3335;43.198;27.918;2022-12-29T12:55:39;16.17;;;6.10;;
6598;SDS011;3335;43.198;27.918;2022-12-29T12:58:18;16.93;;;6.57;;
6598;SDS011;3335;43.198;27.918;2022-12-29T13:00:57;10.53;;;5.73;;
6598;SDS011;3335;43.198;27.918;2022-12-29T13:03:36;22.63;;;6.60;;
6598;SDS011;3335;43.198;27.918;2022-12-29T13:06:16;15.10;;;6.27;;
6598;SDS011;3335;43.198;27.918;2022-12-29T13:08:52;20.03;;;6.30;;
6598;SDS011;3335;43.198;27.918;2022-12-29T13:11:46;15.73;;;5.83;;
6598;SDS011;3335;43.198;27.918;2022-12-29T13:14:26;24.13;;;7.13;;
6598;SDS011;3335;43.198;27.918;2022-12-29T13:17:06;18.07;;;7.57;;
6598;SDS011;3335;43.198;27.918;2022-12-29T13:19:43;20.20;;;6.27;;
6598;SDS011;3335;43.198;27.918;2022-12-29T13:22:19;17.20;;;6.90;;
6598;SDS011;3335;43.198;27.918;2022-12-29T13:24:54;12.00;;;6.47;;
6598;SDS011;3335;43.198;27.918;2022-12-29T13:27:35;17.37;;;5.93;;
6598;SDS011;3335;43.198;27.918;2022-12-29T13:30:10;11.33;;;5.57;;
6598;SDS011;3335;43.198;27.918;2022-12-29T13:32:45;12.67;;;6.10;;
6598;SDS011;3335;43.198;27.918;2022-12-29T13:35:26;14.03;;;6.67;;
6598;SDS011;3335;43.198;27.918;2022-12-29T13:38:09;17.57;;;6.53;;
6598;SDS011;3335;43.198;27.918;2022-12-29T13:40:39;12.27;;;6.47;;
6598;SDS011;3335;43.198;27.918;2022-12-29T13:43:10;18.43;;;7.33;;
6598;SDS011;3335;43.198;27.918;2022-12-29T13:45:41;11.50;;;5.80;;
6598;SDS011;3335;43.198;27.918;2022-12-29T13:48:12;13.17;;;6.73;;
6598;SDS011;3335;43.198;27.918;2022-12-29T13:50:44;13.20;;;6.10;;
6598;SDS011;3335;43.198;27.918;2022-12-29T13:53:19;13.33;;;6.57;;
6598;SDS011;3335;43.198;27.918;2022-12-29T13:55:56;11.70;;;6.87;;
6598;SDS011;3335;43.198;27.918;2022-12-29T13:58:34;12.13;;;6.57;;
6598;SDS011;3335;43.198;27.918;2022-12-29T14:01:10;15.17;;;6.93;;
6598;SDS011;3335;43.198;27.918;2022-12-29T14:03:44;13.93;;;7.47;;
6598;SDS011;3335;43.198;27.918;2022-12-29T14:06:15;14.40;;;6.97;;
6598;SDS011;3335;43.198;27.918;2022-12-29T14:08:48;18.83;;;7.10;;
6598;SDS011;3335;43.198;27.918;2022-12-29T14:11:16;17.87;;;7.77;;
6598;SDS011;3335;43.198;27.918;2022-12-29T14:13:46;19.80;;;7.67;;
6598;SDS011;3335;43.198;27.918;2022-12-29T14:16:32;23.27;;;8.90;;
6598;SDS011;3335;43.198;27.918;2022-12-29T14:19:04;20.67;;;8.97;;
6598;SDS011;3335;43.198;27.918;2022-12-29T14:21:37;15.03;;;7.97;;
6598;SDS011;3335;43.198;27.918;2022-12-29T14:33:17;20.13;;;8.33;;
6598;SDS011;3335;43.198;27.918;2022-12-29T14:35:48;24.87;;;9.73;;
6598;SDS011;3335;43.198;27.918;2022-12-29T14:41:29;19.67;;;9.13;;
6598;SDS011;3335;43.198;27.918;2022-12-29T14:44:14;19.10;;;9.33;;
6598;SDS011;3335;43.198;27.918;2022-12-29T14:46:46;21.40;;;10.50;;
6598;SDS011;3335;43.198;27.918;2022-12-29T14:49:23;19.67;;;11.27;;
6598;SDS011;3335;43.198;27.918;2022-12-29T14:51:52;27.87;;;13.47;;
6598;SDS011;3335;43.198;27.918;2022-12-29T14:54:40;26.10;;;12.30;;
6598;SDS011;3335;43.198;27.918;2022-12-29T14:57:18;22.77;;;12.00;;
6598;SDS011;3335;43.198;27.918;2022-12-29T14:59:48;25.77;;;12.53;;
6598;SDS011;3335;43.198;27.918;2022-12-29T15:02:22;20.83;;;11.23;;
6598;SDS011;3335;43.198;27.918;2022-12-29T15:04:54;20.03;;;10.83;;
6598;SDS011;3335;43.198;27.918;2022-12-29T15:07:26;20.93;;;9.83;;
6598;SDS011;3335;43.198;27.918;2022-12-29T15:09:56;19.57;;;9.90;;
6598;SDS011;3335;43.198;27.918;2022-12-29T15:12:30;21.60;;;8.77;;
6598;SDS011;3335;43.198;27.918;2022-12-29T15:15:10;17.50;;;9.73;;
6598;SDS011;3335;43.198;27.918;2022-12-29T15:17:44;17.93;;;8.83;;
6598;SDS011;3335;43.198;27.918;2022-12-29T15:20:19;19.00;;;10.00;;
6598;SDS011;3335;43.198;27.918;2022-12-29T15:22:52;18.27;;;9.47;;
6598;SDS011;3335;43.198;27.918;2022-12-29T15:25:21;19.70;;;10.20;;
6598;SDS011;3335;43.198;27.918;2022-12-29T15:27:48;20.87;;;10.23;;
6598;SDS011;3335;43.198;27.918;2022-12-29T15:30:18;19.33;;;9.60;;